| time (UTC) | temp F | wind direction | speed MPH | gust MPH | rain 1hr in | rain 24hr in | rain mn in | humidity % | barometer mb |
| 20260504220846 | 82 | 126 | 0.0 | 8.0 | 0.00 | 0.00 | 0.00 | 50 | 1002.1 |
| 20260504220348 | 82 | 144 | 1.0 | 8.0 | 0.00 | 0.00 | 0.00 | 49 | 1001.8 |
| 20260504215840 | 82 | 333 | 4.0 | 13.0 | 0.00 | 0.00 | 0.00 | 48 | 1001.8 |
| 20260504215607 | 82 | 4 | 8.0 | 13.0 | 0.00 | 0.00 | 0.00 | 48 | 1001.8 |
| 20260504214835 | 82 | 101 | 0.0 | 8.0 | 0.00 | 0.00 | 0.00 | 49 | 1001.8 |
| 20260504214340 | 82 | 165 | 0.0 | 10.0 | 0.00 | 0.00 | 0.00 | 49 | 1002.1 |
| 20260504213833 | 82 | 4 | 3.0 | 10.0 | 0.00 | 0.00 | 0.00 | 48 | 1001.8 |
| 20260504213321 | 82 | 30 | 6.0 | 10.0 | 0.00 | 0.00 | 0.00 | 48 | 1001.8 |
| 20260504212802 | 82 | 14 | 0.0 | 10.0 | 0.00 | 0.00 | 0.00 | 49 | 1001.8 |
| 20260504212258 | 82 | 51 | 1.0 | 10.0 | 0.00 | 0.00 | 0.00 | 48 | 1001.5 |
| 20260504211732 | 83 | 52 | 2.0 | 5.0 | 0.00 | 0.00 | 0.00 | 46 | 1001.5 |
| 20260504211237 | 83 | 122 | 0.0 | 10.0 | 0.00 | 0.00 | 0.00 | 50 | 1001.5 |
| 20260504210711 | 83 | 318 | 3.0 | 17.0 | 0.00 | 0.00 | 0.00 | 48 | 1001.8 |
| 20260504210210 | 83 | 323 | 6.0 | 17.0 | 0.00 | 0.00 | 0.00 | 47 | 1001.8 |
| 20260504205704 | 81 | 164 | 0.0 | 8.0 | 0.00 | 0.00 | 0.00 | 50 | 1001.8 |
| 20260504205410 | 80 | 129 | 0.0 | 8.0 | 0.00 | 0.00 | 0.00 | 51 | 1002.1 |
| 20260504204629 | 80 | 142 | 0.0 | 8.0 | 0.00 | 0.00 | 0.00 | 49 | 1001.8 |
| 20260504204134 | 80 | 335 | 0.0 | 5.0 | 0.00 | 0.00 | 0.00 | 50 | 1002.1 |
| 20260504203618 | 81 | 111 | 3.0 | 5.0 | 0.00 | 0.00 | 0.00 | 49 | 1001.8 |
| 20260504203110 | 81 | 11 | 0.0 | 5.0 | 0.00 | 0.00 | 0.00 | 49 | 1002.1 |
| 20260504203047 | 81 | 346 | 1.0 | 5.0 | 0.00 | 0.00 | 0.00 | 51 | 1002.1 |
| 20260504202048 | 80 | 39 | 0.0 | 5.0 | 0.00 | 0.00 | 0.00 | 51 | 1002.5 |
| 20260504201551 | 78 | 121 | 0.0 | 8.0 | 0.00 | 0.00 | 0.00 | 54 | 1002.5 |
| 20260504201037 | 77 | 105 | 0.0 | 10.0 | 0.00 | 0.00 | 0.00 | 54 | 1002.1 |
| 20260504200539 | 76 | 31 | 0.0 | 10.0 | 0.00 | 0.00 | 0.00 | 54 | 1002.1 |
| 20260504200044 | 76 | 334 | 0.0 | 10.0 | 0.00 | 0.00 | 0.00 | 55 | 1003.6 |
| 20260504195519 | 77 | 135 | 1.0 | 10.0 | 0.00 | 0.00 | 0.00 | 57 | 1003.9 |
| 20260504195019 | 78 | 332 | 3.0 | 8.0 | 0.00 | 0.00 | 0.00 | 49 | 1003.6 |
| 20260504194518 | 79 | 104 | 0.0 | 8.0 | 0.00 | 0.00 | 0.00 | 49 | 1003.9 |
| 20260504194003 | 79 | 335 | 0.0 | 5.0 | 0.00 | 0.00 | 0.00 | 47 | 1003.6 |
| 20260504193503 | 80 | 145 | 0.0 | 5.0 | 0.00 | 0.00 | 0.00 | 48 | 1003.2 |
| 20260504193004 | 80 | 113 | 0.0 | 10.0 | 0.00 | 0.00 | 0.00 | 48 | 1003.2 |
| 20260504192503 | 81 | 24 | 0.0 | 8.0 | 0.00 | 0.00 | 0.00 | 45 | 1003.2 |
| 20260504192004 | 82 | 328 | 0.0 | 8.0 | 0.00 | 0.00 | 0.00 | 46 | 1003.2 |
| 20260504191506 | 83 | 167 | 2.0 | 8.0 | 0.00 | 0.00 | 0.00 | 44 | 1003.6 |
| 20260504190941 | 85 | 154 | 2.0 | 8.0 | 0.00 | 0.00 | 0.00 | 46 | 1003.2 |
| 20260504190441 | 84 | 312 | 1.0 | 15.0 | 0.00 | 0.00 | 0.00 | 47 | 1003.2 |
| 20260504190210 | 83 | 319 | 2.0 | 13.0 | 0.00 | 0.00 | 0.00 | 47 | 1003.2 |
| 20260504185917 | 84 | 89 | 2.0 | 8.0 | 0.00 | 0.00 | 0.00 | 44 | 1003.2 |
| 20260504184934 | 84 | 349 | 1.0 | 10.0 | 0.00 | 0.00 | 0.00 | 49 | 1003.2 |
| 20260504184433 | 83 | 137 | 0.0 | 10.0 | 0.00 | 0.00 | 0.00 | 48 | 1003.6 |
| 20260504183928 | 84 | 16 | 0.0 | 10.0 | 0.00 | 0.00 | 0.00 | 46 | 1003.2 |
| 20260504183428 | 83 | 2 | 2.0 | 8.0 | 0.00 | 0.00 | 0.00 | 48 | 1003.6 |
| 20260504182919 | 84 | 37 | 2.0 | 5.0 | 0.00 | 0.00 | 0.00 | 46 | 1003.2 |
| 20260504182414 | 84 | 334 | 4.0 | 10.0 | 0.00 | 0.00 | 0.00 | 46 | 1003.6 |
| 20260504181914 | 84 | 282 | 2.0 | 10.0 | 0.00 | 0.00 | 0.00 | 45 | 1003.6 |
| 20260504181406 | 83 | 181 | 0.0 | 8.0 | 0.00 | 0.00 | 0.00 | 46 | 1003.2 |
| 20260504181150 | 84 | 83 | 0.0 | 10.0 | 0.00 | 0.00 | 0.00 | 48 | 1003.6 |
| 20260504180355 | 84 | 6 | 0.0 | 10.0 | 0.00 | 0.00 | 0.00 | 48 | 1003.6 |
| 20260504180118 | 83 | 6 | 0.0 | 5.0 | 0.00 | 0.00 | 0.00 | 46 | 1003.6 |
| 20260504175339 | 83 | 109 | 0.0 | 8.0 | 0.00 | 0.00 | 0.00 | 52 | 1003.6 |
| 20260504175116 | 82 | 357 | 5.0 | 10.0 | 0.00 | 0.00 | 0.00 | 50 | 1003.9 |
| 20260504174326 | 82 | 9 | 0.0 | 10.0 | 0.00 | 0.00 | 0.00 | 52 | 1003.9 |
| 20260504173824 | 82 | 332 | 3.0 | 5.0 | 0.00 | 0.00 | 0.00 | 52 | 1003.9 |
| 20260504173310 | 82 | 38 | 0.0 | 5.0 | 0.00 | 0.00 | 0.00 | 53 | 1003.9 |
| 20260504172803 | 82 | 4 | 0.0 | 13.0 | 0.00 | 0.00 | 0.00 | 52 | 1004.3 |
| 20260504172307 | 80 | 219 | 0.0 | 13.0 | 0.00 | 0.00 | 0.00 | 54 | 1004.3 |
| 20260504171802 | 80 | 3 | 1.0 | 8.0 | 0.00 | 0.00 | 0.00 | 53 | 1004.3 |
| 20260504171255 | 81 | 337 | 2.0 | 8.0 | 0.00 | 0.00 | 0.00 | 51 | 1004.6 |
| 20260504170741 | 81 | 210 | 0.0 | 5.0 | 0.00 | 0.00 | 0.00 | 53 | 1004.6 |
| 20260504170244 | 80 | 45 | 0.0 | 5.0 | 0.00 | 0.00 | 0.00 | 54 | 1004.6 |
| 20260504150931 | 76 | 96 | 0.0 | 2.0 | 0.00 | 0.00 | 0.00 | 55 | 1006.0 |
| 20260504150700 | 76 | 128 | 0.0 | 5.0 | 0.00 | 0.00 | 0.00 | 56 | 1006.0 |
| 20260504141330 | 76 | 8 | 0.0 | 2.0 | 0.00 | 0.00 | 0.00 | 59 | 1006.0 |
| 20260504140814 | 76 | 139 | 0.0 | 2.0 | 0.00 | 0.00 | 0.00 | 61 | 1006.0 |
| 20260504140314 | 76 | 357 | 2.0 | 2.0 | 0.00 | 0.00 | 0.00 | 58 | 1006.0 |
| 20260504130729 | 70 | 197 | 0.0 | 2.0 | 0.00 | 0.00 | 0.00 | 71 | 1006.6 |
| 20260504130242 | 69 | 210 | 0.0 | 2.0 | 0.00 | 0.00 | 0.00 | 70 | 1007.0 |
| 20260504120110 | 56 | 99 | 0.0 | 0.0 | 0.00 | 0.00 | 0.00 | 95 | 1007.7 |
| 20260504110434 | 54 | 89 | 0.0 | 0.0 | 0.00 | 0.00 | 0.00 | 95 | 1007.0 |
| 20260504100202 | 56 | 109 | 0.0 | 0.0 | 0.00 | 0.00 | 0.00 | 89 | 1007.0 |
| 20260504081524 | 60 | 112 | 0.0 | 0.0 | 0.00 | 0.00 | 0.00 | 77 | 1006.3 |
| 20260504081229 | 60 | 278 | 0.0 | 0.0 | 0.00 | 0.00 | 0.00 | 77 | 1006.3 |
| 20260504080502 | 61 | 3 | 0.0 | 0.0 | 0.00 | 0.00 | 0.00 | 76 | 1006.6 |
| 20260504050200 | 62 | 19 | 0.0 | 2.0 | 0.00 | 0.00 | 0.00 | 71 | 1007.3 |
| 20260504045635 | 62 | 222 | 0.0 | 2.0 | 0.00 | 0.00 | 0.00 | 71 | 1007.7 |
| 20260504045129 | 62 | 67 | 0.0 | 0.0 | 0.00 | 0.00 | 0.00 | 71 | 1007.7 |
| 20260504044624 | 62 | 113 | 0.0 | 0.0 | 0.00 | 0.00 | 0.00 | 71 | 1007.7 |
| 20260504044114 | 63 | 147 | 0.0 | 2.0 | 0.00 | 0.00 | 0.00 | 70 | 1007.7 |
| 20260504043613 | 63 | 58 | 0.0 | 2.0 | 0.00 | 0.00 | 0.00 | 69 | 1007.7 |
| 20260504043113 | 63 | 75 | 0.0 | 2.0 | 0.00 | 0.00 | 0.00 | 70 | 1007.7 |
| 20260504042836 | 63 | 165 | 0.0 | 2.0 | 0.00 | 0.00 | 0.00 | 70 | 1008.0 |
| 20260504042319 | 63 | 139 | 0.0 | 2.0 | 0.00 | 0.00 | 0.00 | 69 | 1008.0 |
| 20260504041606 | 63 | 73 | 0.0 | 0.0 | 0.00 | 0.00 | 0.00 | 69 | 1008.0 |
| 20260504041321 | 63 | 35 | 0.0 | 5.0 | 0.00 | 0.00 | 0.00 | 68 | 1008.0 |
| 20260504040605 | 63 | 9 | 0.0 | 5.0 | 0.00 | 0.00 | 0.00 | 69 | 1008.3 |
| 20260504040053 | 63 | 111 | 0.0 | 0.0 | 0.00 | 0.00 | 0.00 | 69 | 1008.3 |
| 20260504035807 | 63 | 135 | 0.0 | 2.0 | 0.00 | 0.00 | 0.00 | 69 | 1008.0 |
| 20260504035035 | 63 | 126 | 0.0 | 2.0 | 0.00 | 0.00 | 0.00 | 67 | 1008.3 |
| 20260504034529 | 63 | 67 | 0.0 | 0.0 | 0.00 | 0.00 | 0.00 | 68 | 1008.3 |
| 20260504034029 | 63 | 29 | 0.0 | 0.0 | 0.00 | 0.00 | 0.00 | 68 | 1008.3 |
| 20260504033528 | 63 | 223 | 0.0 | 2.0 | 0.00 | 0.00 | 0.00 | 68 | 1008.3 |
| 20260504033244 | 63 | 352 | 0.0 | 0.0 | 0.00 | 0.00 | 0.00 | 67 | 1008.7 |
| 20260504032727 | 63 | 118 | 0.0 | 0.0 | 0.00 | 0.00 | 0.00 | 67 | 1008.3 |
| 20260504031954 | 63 | 114 | 0.0 | 2.0 | 0.00 | 0.00 | 0.00 | 66 | 1008.3 |
| 20260504031714 | 63 | 47 | 0.0 | 2.0 | 0.00 | 0.00 | 0.00 | 67 | 1008.3 |
| 20260504030933 | 63 | 4 | 0.0 | 0.0 | 0.00 | 0.00 | 0.00 | 66 | 1008.3 |
| 20260504030436 | 63 | 127 | 0.0 | 2.0 | 0.00 | 0.00 | 0.00 | 66 | 1008.3 |
| 20260504025928 | 64 | 79 | 0.0 | 2.0 | 0.00 | 0.00 | 0.00 | 65 | 1008.3 |
| 20260504025428 | 64 | 19 | 0.0 | 0.0 | 0.00 | 0.00 | 0.00 | 64 | 1008.3 |
| 20260504024928 | 64 | 98 | 0.0 | 2.0 | 0.00 | 0.00 | 0.00 | 65 | 1008.3 |
| 20260504024412 | 64 | 136 | 0.0 | 2.0 | 0.00 | 0.00 | 0.00 | 64 | 1008.3 |
| 20260504023913 | 64 | 164 | 0.0 | 2.0 | 0.00 | 0.00 | 0.00 | 64 | 1008.3 |
| 20260504023358 | 65 | 4 | 0.0 | 2.0 | 0.00 | 0.00 | 0.00 | 63 | 1008.3 |
| 20260504022853 | 64 | 358 | 0.0 | 2.0 | 0.00 | 0.00 | 0.00 | 62 | 1008.3 |
| 20260504022336 | 64 | 135 | 0.0 | 0.0 | 0.00 | 0.00 | 0.00 | 63 | 1008.0 |
| 20260504021832 | 64 | 156 | 0.0 | 2.0 | 0.00 | 0.00 | 0.00 | 63 | 1008.0 |
| 20260504021317 | 65 | 209 | 0.0 | 2.0 | 0.00 | 0.00 | 0.00 | 62 | 1008.0 |
| 20260504020811 | 65 | 96 | 0.0 | 0.0 | 0.00 | 0.00 | 0.00 | 62 | 1008.0 |
| 20260504020310 | 65 | 129 | 0.0 | 0.0 | 0.00 | 0.00 | 0.00 | 62 | 1008.0 |
| 20260504015755 | 65 | 27 | 0.0 | 0.0 | 0.00 | 0.00 | 0.00 | 62 | 1008.0 |
| 20260504015229 | 65 | 126 | 0.0 | 0.0 | 0.00 | 0.00 | 0.00 | 61 | 1008.0 |
| 20260504014959 | 65 | 108 | 0.0 | 0.0 | 0.00 | 0.00 | 0.00 | 60 | 1008.0 |
| 20260504014229 | 65 | 123 | 0.0 | 0.0 | 0.00 | 0.00 | 0.00 | 60 | 1008.0 |
| 20260504013732 | 66 | 159 | 0.0 | 0.0 | 0.00 | 0.00 | 0.00 | 60 | 1008.0 |
| 20260504013228 | 66 | 90 | 0.0 | 0.0 | 0.00 | 0.00 | 0.00 | 60 | 1007.7 |
| 20260504012712 | 66 | 93 | 0.0 | 0.0 | 0.00 | 0.00 | 0.00 | 58 | 1008.0 |
| 20260504012217 | 67 | 90 | 0.0 | 0.0 | 0.00 | 0.00 | 0.00 | 57 | 1008.0 |
| 20260504011657 | 67 | 111 | 0.0 | 0.0 | 0.00 | 0.00 | 0.00 | 55 | 1008.0 |
| 20260504011156 | 68 | 157 | 0.0 | 0.0 | 0.00 | 0.00 | 0.00 | 55 | 1007.7 |
| 20260504010916 | 68 | 85 | 0.0 | 0.0 | 0.00 | 0.00 | 0.00 | 56 | 1007.7 |
| 20260504010416 | 69 | 91 | 0.0 | 0.0 | 0.00 | 0.00 | 0.00 | 54 | 1008.0 |
| 20260504005648 | 69 | 110 | 0.0 | 0.0 | 0.00 | 0.00 | 0.00 | 53 | 1008.0 |
| 20260504005133 | 70 | 75 | 0.0 | 5.0 | 0.00 | 0.00 | 0.00 | 52 | 1007.7 |
| 20260504004627 | 71 | 312 | 0.0 | 5.0 | 0.00 | 0.00 | 0.00 | 50 | 1007.7 |
| 20260504004126 | 71 | 83 | 0.0 | 0.0 | 0.00 | 0.00 | 0.00 | 51 | 1007.7 |
| 20260504003622 | 71 | 133 | 0.0 | 0.0 | 0.00 | 0.00 | 0.00 | 51 | 1007.7 |
| 20260504003108 | 72 | 121 | 0.0 | 2.0 | 0.00 | 0.00 | 0.00 | 49 | 1007.7 |
| 20260504002829 | 72 | 58 | 0.0 | 2.0 | 0.00 | 0.00 | 0.00 | 48 | 1007.7 |
| 20260504002106 | 73 | 335 | 0.0 | 5.0 | 0.00 | 0.00 | 0.00 | 47 | 1007.7 |
| 20260504001829 | 73 | 55 | 0.0 | 5.0 | 0.00 | 0.00 | 0.00 | 46 | 1008.0 |
| 20260504001041 | 73 | 120 | 0.0 | 5.0 | 0.00 | 0.00 | 0.00 | 46 | 1007.7 |
| 20260504000819 | 74 | 21 | 0.0 | 5.0 | 0.00 | 0.00 | 0.00 | 46 | 1007.7 |
| 20260504000029 | 74 | 103 | 0.0 | 0.0 | 0.00 | 0.00 | 0.00 | 45 | 1007.7 |
| 20260503235534 | 74 | 105 | 0.0 | 2.0 | 0.00 | 0.00 | 0.00 | 45 | 1008.0 |
| 20260503235028 | 74 | 112 | 0.0 | 5.0 | 0.00 | 0.00 | 0.00 | 45 | 1008.0 |
| 20260503234532 | 75 | 54 | 0.0 | 5.0 | 0.00 | 0.00 | 0.00 | 44 | 1008.0 |
| 20260503234029 | 75 | 123 | 0.0 | 5.0 | 0.00 | 0.00 | 0.00 | 44 | 1007.7 |
| 20260503233532 | 75 | 104 | 0.0 | 5.0 | 0.00 | 0.00 | 0.00 | 43 | 1008.0 |
| 20260503233013 | 75 | 125 | 0.0 | 8.0 | 0.00 | 0.00 | 0.00 | 42 | 1008.0 |
| 20260503232519 | 76 | 354 | 1.0 | 8.0 | 0.00 | 0.00 | 0.00 | 41 | 1008.0 |
| 20260503232002 | 76 | 324 | 1.0 | 5.0 | 0.00 | 0.00 | 0.00 | 41 | 1008.0 |
| 20260503231500 | 76 | 163 | 0.0 | 5.0 | 0.00 | 0.00 | 0.00 | 41 | 1008.0 |
| 20260503230955 | 76 | 138 | 0.0 | 5.0 | 0.00 | 0.00 | 0.00 | 42 | 1008.0 |
| 20260503230446 | 76 | 104 | 1.0 | 8.0 | 0.00 | 0.00 | 0.00 | 41 | 1008.0 |
| 20260503225950 | 76 | 116 | 3.0 | 10.0 | 0.00 | 0.00 | 0.00 | 41 | 1008.0 |
| 20260503225433 | 76 | 358 | 2.0 | 10.0 | 0.00 | 0.00 | 0.00 | 41 | 1008.0 |
| 20260503224927 | 76 | 48 | 0.0 | 10.0 | 0.00 | 0.00 | 0.00 | 41 | 1008.0 |
| 20260503224428 | 76 | 195 | 0.0 | 10.0 | 0.00 | 0.00 | 0.00 | 40 | 1008.0 |
| 20260503223923 | 76 | 168 | 0.0 | 10.0 | 0.00 | 0.00 | 0.00 | 41 | 1008.0 |
| 20260503223407 | 76 | 147 | 4.0 | 10.0 | 0.00 | 0.00 | 0.00 | 41 | 1008.0 |
| 20260503222902 | 76 | 175 | 0.0 | 10.0 | 0.00 | 0.00 | 0.00 | 41 | 1008.0 |
| 20260503222405 | 76 | 325 | 2.0 | 5.0 | 0.00 | 0.00 | 0.00 | 40 | 1008.0 |
| 20260503221850 | 76 | 21 | 0.0 | 13.0 | 0.00 | 0.00 | 0.00 | 41 | 1008.3 |
| 20260503221350 | 76 | 333 | 2.0 | 13.0 | 0.00 | 0.00 | 0.00 | 40 | 1008.0 |